Flight Track Log - Related Links

Times and Time Zones

All times are in EDT time to prevent confusion due to time zone crossing. See the JIA2373 flight status page for this flight to view local times or setup timezone preferences in your user account.

Time Position Orientation Groundspeed Altitude Reporting Facility
EDT Latitude Longitude Course Direction KTS MPH feet Rate Location/Type
Wed 10:54:15 AM 35.7258 -77.4878 266° West 341 392 4,900  Level Washington Center
Wed 10:55:13 AM 35.7203 -77.5772 266° West 293 337 6,700 2,186 Climbing Washington Center
Wed 10:56:13 AM 35.7269 -77.6797 275° West 284 327 9,200 2,281 Climbing Washington Center
Wed 10:57:14 AM 35.7336 -77.7747 275° West 284 327 11,300 2,262 Climbing Washington Center
Wed 10:58:15 AM 35.7336 -77.8769 270° West 297 342 13,800 2,231 Climbing Washington Center
Wed 10:59:15 AM 35.7381 -77.9692 273° West 297 342 15,800 2,034 Climbing Washington Center
Wed 11:00:13 AM 35.7442 -78.0794 274° West 297 342 17,800 2,067 Climbing Washington Center
Wed 11:01:14 AM 35.7503 -78.1847 274° West 297 342 19,900 1,672 Climbing Washington Center
Wed 11:02:15 AM 35.7542 -78.2897 273° West 308 354 21,200 1,059 Climbing Washington Center
Wed 11:03:13 AM 35.7603 -78.3897 274° West 324 373 22,000 403 Climbing Washington Center
Wed 11:04:14 AM 35.7675 -78.5256 274° West 349 402 22,000  Level Washington Center
Wed 11:05:15 AM 35.7725 -78.6589 273° West 372 428 22,000  Level Washington Center
Wed 11:06:15 AM 35.7775 -78.7872 273° West 387 445 22,000  Level Washington Center
Wed 11:07:15 AM 35.7839 -78.9308 273° West 398 458 22,000  Level Washington Center
Wed 11:08:13 AM 35.7889 -79.0564 273° West 405 466 22,000  Level Washington Center
Wed 11:09:13 AM 35.7950 -79.1975 273° West 417 480 22,000 -1,212 Level Washington Center
Wed 11:11:41 AM 35.8094 -79.5525 273° West 403 464 17,800 -1,442 Descending Atlanta Center
Wed 11:12:41 AM 35.8117 -79.6728 271° West 403 464 17,000 -400 Descending Atlanta Center
Wed 11:13:41 AM 35.8100 -79.8061 269° West 398 458 17,000 -50 Level Atlanta Center
Wed 11:14:41 AM 35.8103 -79.9342 270° West 392 451 16,900 -350 Descending Atlanta Center
Wed 11:15:41 AM 35.8100 -80.0519 270° West 372 428 16,300 -650 Descending Atlanta Center
Wed 11:16:41 AM 35.8097 -80.1772 270° West 343 395 15,600 -645 Descending Atlanta Center
Wed 11:17:14 AM 35.8097 -80.2414 270° West 332 382 15,300 -711 Descending Atlanta Center
Wed 11:17:57 AM 35.8100 -80.3181 270° West 330 380 14,700 -897 Descending Atlanta Center
Wed 11:18:41 AM 35.8103 -80.3975 270° West 332 382 14,000 -981 Descending Atlanta Center
Wed 11:19:41 AM 35.7647 -80.4789 235° Southwest 282 325 13,000 -900 Descending Atlanta Center
Wed 11:20:41 AM 35.6911 -80.5358 212° Southwest 289 333 12,200 -650 Descending Atlanta Center
Wed 11:21:41 AM 35.6200 -80.5950 214° Southwest 311 358 11,700 -500 Descending Atlanta Center
Wed 11:22:41 AM 35.5506 -80.6542 215° Southwest 317 365 11,200 -522 Descending Atlanta Center
Wed 11:23:13 AM 35.5139 -80.6861 215° Southwest 303 349 10,900 -452 Descending Atlanta Center
Wed 11:24:14 AM 35.4467 -80.7450 216° Southwest 299 344 10,500 -344 Descending Atlanta Center
Wed 11:25:15 AM 35.3772 -80.7989 212° Southwest 292 336 10,200 -393 Descending Atlanta Center
Wed 11:26:16 AM 35.3031 -80.8425 206° Southwest 285 328 9,700 -656 Descending Atlanta Center
Wed 11:27:23 AM 35.2239 -80.8378 177° South 254 292 8,800 -828 Descending Atlanta Center
Wed 11:28:12 AM 35.1694 -80.8322 175° South 237 273 8,100 -1,255 Descending Atlanta Center
Wed 11:29:13 AM 35.0961 -80.8250 175° South 243 280 6,500 -1,377 Descending Atlanta Center
Wed 11:30:14 AM 35.0272 -80.8200 177° South 247 284 5,300 -1,181 Descending Atlanta Center
Wed 11:31:20 AM 34.9889 -80.8747 229° Southwest 234 269 4,000 -1,182 Descending Atlanta Center

Login

Don't have an account? Register now (free) for customized features, flight alerts, and more!